sensor_id;sensor_type;location;lat;lon;timestamp;P1;durP1;ratioP1;P2;durP2;ratioP2
40471;SDS011;26174;42.908;23.800;2023-10-13T00:00:56;16.92;;;8.32;;
40471;SDS011;26174;42.908;23.800;2023-10-13T00:03:23;13.75;;;7.55;;
40471;SDS011;26174;42.908;23.800;2023-10-13T00:05:50;15.40;;;8.38;;
40471;SDS011;26174;42.908;23.800;2023-10-13T00:08:18;17.70;;;8.48;;
40471;SDS011;26174;42.908;23.800;2023-10-13T00:10:45;13.82;;;7.63;;
40471;SDS011;26174;42.908;23.800;2023-10-13T00:13:12;15.75;;;8.15;;
40471;SDS011;26174;42.908;23.800;2023-10-13T00:15:41;14.98;;;7.88;;
40471;SDS011;26174;42.908;23.800;2023-10-13T00:18:31;14.73;;;7.33;;
40471;SDS011;26174;42.908;23.800;2023-10-13T00:21:06;11.57;;;7.03;;
40471;SDS011;26174;42.908;23.800;2023-10-13T00:23:49;15.60;;;8.20;;
40471;SDS011;26174;42.908;23.800;2023-10-13T00:26:18;15.65;;;8.00;;
40471;SDS011;26174;42.908;23.800;2023-10-13T00:28:53;15.98;;;9.35;;
40471;SDS011;26174;42.908;23.800;2023-10-13T00:31:35;25.08;;;8.95;;
40471;SDS011;26174;42.908;23.800;2023-10-13T00:34:03;16.88;;;9.57;;
40471;SDS011;26174;42.908;23.800;2023-10-13T00:36:37;20.88;;;9.90;;
40471;SDS011;26174;42.908;23.800;2023-10-13T00:39:12;26.38;;;10.82;;
40471;SDS011;26174;42.908;23.800;2023-10-13T00:41:41;15.82;;;9.90;;
40471;SDS011;26174;42.908;23.800;2023-10-13T00:44:16;17.83;;;9.95;;
40471;SDS011;26174;42.908;23.800;2023-10-13T00:46:41;14.18;;;8.45;;
40471;SDS011;26174;42.908;23.800;2023-10-13T00:49:09;14.70;;;9.18;;
40471;SDS011;26174;42.908;23.800;2023-10-13T00:51:35;16.92;;;8.70;;
40471;SDS011;26174;42.908;23.800;2023-10-13T00:54:06;17.13;;;8.85;;
40471;SDS011;26174;42.908;23.800;2023-10-13T00:56:38;15.77;;;8.23;;
40471;SDS011;26174;42.908;23.800;2023-10-13T00:59:33;17.52;;;8.85;;
40471;SDS011;26174;42.908;23.800;2023-10-13T01:01:59;15.48;;;8.98;;
40471;SDS011;26174;42.908;23.800;2023-10-13T01:04:45;15.77;;;8.85;;
40471;SDS011;26174;42.908;23.800;2023-10-13T01:07:12;17.20;;;9.50;;
40471;SDS011;26174;42.908;23.800;2023-10-13T01:09:43;22.13;;;11.40;;
40471;SDS011;26174;42.908;23.800;2023-10-13T01:12:09;17.52;;;11.13;;
40471;SDS011;26174;42.908;23.800;2023-10-13T01:14:35;16.20;;;10.13;;
40471;SDS011;26174;42.908;23.800;2023-10-13T01:17:01;12.77;;;8.25;;
40471;SDS011;26174;42.908;23.800;2023-10-13T01:19:27;15.20;;;9.18;;
40471;SDS011;26174;42.908;23.800;2023-10-13T01:21:53;18.55;;;8.05;;
40471;SDS011;26174;42.908;23.800;2023-10-13T01:24:29;17.48;;;8.75;;
40471;SDS011;26174;42.908;23.800;2023-10-13T01:27:01;14.20;;;8.55;;
40471;SDS011;26174;42.908;23.800;2023-10-13T01:29:43;15.18;;;8.27;;
40471;SDS011;26174;42.908;23.800;2023-10-13T01:32:14;15.77;;;8.38;;
40471;SDS011;26174;42.908;23.800;2023-10-13T01:34:41;13.80;;;8.10;;
40471;SDS011;26174;42.908;23.800;2023-10-13T01:37:11;12.65;;;7.90;;
40471;SDS011;26174;42.908;23.800;2023-10-13T01:39:36;13.02;;;8.13;;
40471;SDS011;26174;42.908;23.800;2023-10-13T01:42:02;12.43;;;7.50;;
40471;SDS011;26174;42.908;23.800;2023-10-13T01:44:28;17.88;;;9.00;;
40471;SDS011;26174;42.908;23.800;2023-10-13T01:46:58;13.23;;;7.75;;
40471;SDS011;26174;42.908;23.800;2023-10-13T01:49:34;14.60;;;8.10;;
40471;SDS011;26174;42.908;23.800;2023-10-13T01:52:18;14.98;;;7.70;;
40471;SDS011;26174;42.908;23.800;2023-10-13T01:54:43;13.60;;;8.18;;
40471;SDS011;26174;42.908;23.800;2023-10-13T01:57:10;14.10;;;8.10;;
40471;SDS011;26174;42.908;23.800;2023-10-13T01:59:43;12.27;;;8.40;;
40471;SDS011;26174;42.908;23.800;2023-10-13T02:02:12;15.02;;;7.55;;
40471;SDS011;26174;42.908;23.800;2023-10-13T02:04:38;12.77;;;7.43;;
40471;SDS011;26174;42.908;23.800;2023-10-13T02:07:14;15.43;;;7.45;;
40471;SDS011;26174;42.908;23.800;2023-10-13T02:09:40;20.00;;;7.85;;
40471;SDS011;26174;42.908;23.800;2023-10-13T02:12:08;10.80;;;7.25;;
40471;SDS011;26174;42.908;23.800;2023-10-13T02:14:34;11.80;;;7.30;;
40471;SDS011;26174;42.908;23.800;2023-10-13T02:17:02;13.75;;;8.15;;
40471;SDS011;26174;42.908;23.800;2023-10-13T02:19:41;15.23;;;8.80;;
40471;SDS011;26174;42.908;23.800;2023-10-13T02:22:13;26.58;;;12.77;;
40471;SDS011;26174;42.908;23.800;2023-10-13T02:24:56;19.15;;;10.68;;
40471;SDS011;26174;42.908;23.800;2023-10-13T02:27:26;26.10;;;11.48;;
40471;SDS011;26174;42.908;23.800;2023-10-13T02:29:52;27.67;;;10.80;;
40471;SDS011;26174;42.908;23.800;2023-10-13T02:32:23;24.52;;;10.73;;
40471;SDS011;26174;42.908;23.800;2023-10-13T02:34:49;19.70;;;10.35;;
40471;SDS011;26174;42.908;23.800;2023-10-13T02:37:15;26.92;;;10.45;;
40471;SDS011;26174;42.908;23.800;2023-10-13T02:39:44;27.35;;;9.90;;
40471;SDS011;26174;42.908;23.800;2023-10-13T02:42:09;17.20;;;9.98;;
40471;SDS011;26174;42.908;23.800;2023-10-13T02:44:48;22.48;;;9.48;;
40471;SDS011;26174;42.908;23.800;2023-10-13T02:47:14;21.70;;;9.68;;
40471;SDS011;26174;42.908;23.800;2023-10-13T02:49:40;17.05;;;10.07;;
40471;SDS011;26174;42.908;23.800;2023-10-13T02:52:11;18.48;;;9.98;;
40471;SDS011;26174;42.908;23.800;2023-10-13T02:54:38;17.52;;;9.40;;
40471;SDS011;26174;42.908;23.800;2023-10-13T02:57:12;16.75;;;10.20;;
40471;SDS011;26174;42.908;23.800;2023-10-13T02:59:41;14.93;;;9.40;;
40471;SDS011;26174;42.908;23.800;2023-10-13T03:02:12;17.88;;;10.07;;
40471;SDS011;26174;42.908;23.800;2023-10-13T03:04:51;22.58;;;9.48;;
40471;SDS011;26174;42.908;23.800;2023-10-13T03:07:27;17.73;;;9.10;;
40471;SDS011;26174;42.908;23.800;2023-10-13T03:09:54;26.98;;;10.80;;
40471;SDS011;26174;42.908;23.800;2023-10-13T03:12:23;24.23;;;12.50;;
40471;SDS011;26174;42.908;23.800;2023-10-13T03:14:50;18.52;;;9.48;;
40471;SDS011;26174;42.908;23.800;2023-10-13T03:17:36;17.15;;;9.57;;
40471;SDS011;26174;42.908;23.800;2023-10-13T03:20:02;18.60;;;9.45;;
40471;SDS011;26174;42.908;23.800;2023-10-13T03:22:30;18.98;;;8.95;;
40471;SDS011;26174;42.908;23.800;2023-10-13T03:24:57;19.27;;;9.25;;
40471;SDS011;26174;42.908;23.800;2023-10-13T03:27:30;13.43;;;8.00;;
40471;SDS011;26174;42.908;23.800;2023-10-13T03:32:44;18.27;;;8.77;;
40471;SDS011;26174;42.908;23.800;2023-10-13T03:35:18;22.98;;;9.23;;
40471;SDS011;26174;42.908;23.800;2023-10-13T03:37:55;21.95;;;8.98;;
40471;SDS011;26174;42.908;23.800;2023-10-13T03:40:21;20.58;;;8.70;;
40471;SDS011;26174;42.908;23.800;2023-10-13T03:42:53;26.58;;;10.05;;
40471;SDS011;26174;42.908;23.800;2023-10-13T03:45:26;30.80;;;11.05;;
40471;SDS011;26174;42.908;23.800;2023-10-13T03:47:52;30.85;;;14.05;;
40471;SDS011;26174;42.908;23.800;2023-10-13T03:50:18;23.55;;;11.60;;
40471;SDS011;26174;42.908;23.800;2023-10-13T03:53:05;26.33;;;11.38;;
40471;SDS011;26174;42.908;23.800;2023-10-13T03:55:31;17.63;;;10.73;;
40471;SDS011;26174;42.908;23.800;2023-10-13T03:58:00;25.02;;;10.93;;
40471;SDS011;26174;42.908;23.800;2023-10-13T04:00:25;18.27;;;9.57;;
40471;SDS011;26174;42.908;23.800;2023-10-13T04:02:56;33.50;;;10.48;;
40471;SDS011;26174;42.908;23.800;2023-10-13T04:05:29;26.30;;;12.18;;
40471;SDS011;26174;42.908;23.800;2023-10-13T04:08:10;24.90;;;10.80;;
40471;SDS011;26174;42.908;23.800;2023-10-13T04:10:53;24.13;;;10.85;;
40471;SDS011;26174;42.908;23.800;2023-10-13T04:13:20;29.05;;;10.50;;
40471;SDS011;26174;42.908;23.800;2023-10-13T04:16:06;26.67;;;10.43;;
40471;SDS011;26174;42.908;23.800;2023-10-13T04:18:50;27.23;;;10.13;;
40471;SDS011;26174;42.908;23.800;2023-10-13T04:21:19;29.58;;;10.63;;
40471;SDS011;26174;42.908;23.800;2023-10-13T04:24:03;25.27;;;10.95;;
40471;SDS011;26174;42.908;23.800;2023-10-13T04:26:51;22.35;;;11.75;;
40471;SDS011;26174;42.908;23.800;2023-10-13T04:29:36;24.92;;;11.85;;
40471;SDS011;26174;42.908;23.800;2023-10-13T04:32:30;26.02;;;11.93;;
40471;SDS011;26174;42.908;23.800;2023-10-13T04:35:04;24.30;;;11.02;;
40471;SDS011;26174;42.908;23.800;2023-10-13T04:37:39;25.58;;;11.77;;
40471;SDS011;26174;42.908;23.800;2023-10-13T04:40:26;20.85;;;12.38;;
40471;SDS011;26174;42.908;23.800;2023-10-13T04:43:00;25.02;;;15.45;;
40471;SDS011;26174;42.908;23.800;2023-10-13T04:45:30;23.02;;;12.75;;
40471;SDS011;26174;42.908;23.800;2023-10-13T04:47:56;20.55;;;12.18;;
40471;SDS011;26174;42.908;23.800;2023-10-13T04:50:38;22.63;;;12.07;;
40471;SDS011;26174;42.908;23.800;2023-10-13T04:53:10;20.77;;;12.43;;
40471;SDS011;26174;42.908;23.800;2023-10-13T04:55:54;26.17;;;11.85;;
40471;SDS011;26174;42.908;23.800;2023-10-13T04:58:29;28.02;;;11.90;;
40471;SDS011;26174;42.908;23.800;2023-10-13T05:01:14;38.60;;;13.60;;
40471;SDS011;26174;42.908;23.800;2023-10-13T05:03:49;31.02;;;14.30;;
40471;SDS011;26174;42.908;23.800;2023-10-13T05:06:17;46.47;;;15.57;;
40471;SDS011;26174;42.908;23.800;2023-10-13T05:09:02;71.15;;;22.55;;
40471;SDS011;26174;42.908;23.800;2023-10-13T05:11:46;45.45;;;16.83;;
40471;SDS011;26174;42.908;23.800;2023-10-13T05:14:30;26.98;;;13.10;;
40471;SDS011;26174;42.908;23.800;2023-10-13T05:17:13;32.92;;;12.55;;
40471;SDS011;26174;42.908;23.800;2023-10-13T05:19:58;54.83;;;18.38;;
40471;SDS011;26174;42.908;23.800;2023-10-13T05:22:41;56.13;;;16.98;;
40471;SDS011;26174;42.908;23.800;2023-10-13T05:25:25;22.90;;;10.38;;
40471;SDS011;26174;42.908;23.800;2023-10-13T05:28:09;28.02;;;11.07;;
40471;SDS011;26174;42.908;23.800;2023-10-13T05:30:53;29.40;;;10.43;;
40471;SDS011;26174;42.908;23.800;2023-10-13T05:33:37;22.27;;;9.60;;
40471;SDS011;26174;42.908;23.800;2023-10-13T05:36:21;31.23;;;9.98;;
40471;SDS011;26174;42.908;23.800;2023-10-13T05:39:05;23.92;;;8.90;;
40471;SDS011;26174;42.908;23.800;2023-10-13T05:41:49;17.25;;;9.43;;
40471;SDS011;26174;42.908;23.800;2023-10-13T05:44:33;26.33;;;10.50;;
40471;SDS011;26174;42.908;23.800;2023-10-13T05:47:02;20.92;;;8.90;;
40471;SDS011;26174;42.908;23.800;2023-10-13T05:49:54;25.38;;;10.02;;
40471;SDS011;26174;42.908;23.800;2023-10-13T05:52:30;25.77;;;8.15;;
40471;SDS011;26174;42.908;23.800;2023-10-13T05:55:14;20.77;;;7.95;;
40471;SDS011;26174;42.908;23.800;2023-10-13T05:57:58;17.83;;;8.65;;
40471;SDS011;26174;42.908;23.800;2023-10-13T06:00:42;19.30;;;10.05;;
40471;SDS011;26174;42.908;23.800;2023-10-13T06:03:25;17.27;;;10.98;;
40471;SDS011;26174;42.908;23.800;2023-10-13T06:06:09;21.83;;;10.20;;
40471;SDS011;26174;42.908;23.800;2023-10-13T06:08:53;18.70;;;9.02;;
40471;SDS011;26174;42.908;23.800;2023-10-13T06:11:37;20.35;;;9.68;;
40471;SDS011;26174;42.908;23.800;2023-10-13T06:14:21;43.13;;;11.02;;
40471;SDS011;26174;42.908;23.800;2023-10-13T06:17:05;24.50;;;10.02;;
40471;SDS011;26174;42.908;23.800;2023-10-13T06:19:49;18.77;;;11.02;;
40471;SDS011;26174;42.908;23.800;2023-10-13T06:22:33;18.33;;;10.18;;
40471;SDS011;26174;42.908;23.800;2023-10-13T06:25:17;30.52;;;13.30;;
40471;SDS011;26174;42.908;23.800;2023-10-13T06:28:00;27.63;;;11.77;;
40471;SDS011;26174;42.908;23.800;2023-10-13T06:30:56;31.10;;;12.93;;
40471;SDS011;26174;42.908;23.800;2023-10-13T06:33:23;33.72;;;12.40;;
40471;SDS011;26174;42.908;23.800;2023-10-13T06:35:54;34.35;;;11.63;;
40471;SDS011;26174;42.908;23.800;2023-10-13T06:38:21;25.23;;;11.88;;
40471;SDS011;26174;42.908;23.800;2023-10-13T06:40:48;24.52;;;11.10;;
40471;SDS011;26174;42.908;23.800;2023-10-13T06:43:15;23.13;;;9.80;;
40471;SDS011;26174;42.908;23.800;2023-10-13T06:45:45;19.67;;;9.80;;
40471;SDS011;26174;42.908;23.800;2023-10-13T06:48:22;20.63;;;11.13;;
40471;SDS011;26174;42.908;23.800;2023-10-13T06:50:49;33.88;;;11.85;;
40471;SDS011;26174;42.908;23.800;2023-10-13T06:53:17;28.65;;;11.75;;
40471;SDS011;26174;42.908;23.800;2023-10-13T06:55:43;16.83;;;9.73;;
40471;SDS011;26174;42.908;23.800;2023-10-13T06:58:12;25.40;;;10.02;;
40471;SDS011;26174;42.908;23.800;2023-10-13T07:00:39;27.70;;;11.00;;
40471;SDS011;26174;42.908;23.800;2023-10-13T07:03:18;29.45;;;13.85;;
40471;SDS011;26174;42.908;23.800;2023-10-13T07:05:44;25.80;;;13.98;;
40471;SDS011;26174;42.908;23.800;2023-10-13T07:08:12;42.55;;;18.55;;
40471;SDS011;26174;42.908;23.800;2023-10-13T07:13:16;29.52;;;13.68;;
40471;SDS011;26174;42.908;23.800;2023-10-13T07:15:42;21.45;;;13.00;;
40471;SDS011;26174;42.908;23.800;2023-10-13T07:18:12;21.33;;;11.60;;
40471;SDS011;26174;42.908;23.800;2023-10-13T07:20:39;20.67;;;11.82;;
40471;SDS011;26174;42.908;23.800;2023-10-13T07:23:09;19.75;;;10.98;;
40471;SDS011;26174;42.908;23.800;2023-10-13T07:25:50;20.85;;;10.00;;
40471;SDS011;26174;42.908;23.800;2023-10-13T07:28:21;20.05;;;10.43;;
40471;SDS011;26174;42.908;23.800;2023-10-13T07:30:47;18.80;;;10.48;;
40471;SDS011;26174;42.908;23.800;2023-10-13T07:35:47;24.60;;;10.30;;
40471;SDS011;26174;42.908;23.800;2023-10-13T07:38:24;20.77;;;11.15;;
40471;SDS011;26174;42.908;23.800;2023-10-13T07:40:50;34.80;;;10.40;;
40471;SDS011;26174;42.908;23.800;2023-10-13T07:43:16;28.80;;;9.23;;
40471;SDS011;26174;42.908;23.800;2023-10-13T07:45:46;80.40;;;10.38;;
40471;SDS011;26174;42.908;23.800;2023-10-13T07:48:17;65.65;;;10.32;;
40471;SDS011;26174;42.908;23.800;2023-10-13T07:51:04;61.22;;;10.25;;
40471;SDS011;26174;42.908;23.800;2023-10-13T07:53:41;44.13;;;8.95;;
40471;SDS011;26174;42.908;23.800;2023-10-13T07:56:08;52.65;;;8.90;;
40471;SDS011;26174;42.908;23.800;2023-10-13T07:58:36;50.50;;;8.27;;
40471;SDS011;26174;42.908;23.800;2023-10-13T08:01:18;31.52;;;8.02;;
40471;SDS011;26174;42.908;23.800;2023-10-13T08:03:44;32.60;;;9.13;;
40471;SDS011;26174;42.908;23.800;2023-10-13T08:06:22;25.23;;;7.72;;
40471;SDS011;26174;42.908;23.800;2023-10-13T08:08:53;18.60;;;8.65;;
40471;SDS011;26174;42.908;23.800;2023-10-13T08:11:20;30.13;;;7.93;;
40471;SDS011;26174;42.908;23.800;2023-10-13T08:13:49;27.60;;;8.20;;
40471;SDS011;26174;42.908;23.800;2023-10-13T08:16:23;13.43;;;8.02;;
40471;SDS011;26174;42.908;23.800;2023-10-13T08:18:55;12.40;;;8.10;;
40471;SDS011;26174;42.908;23.800;2023-10-13T08:21:20;15.40;;;8.10;;
40471;SDS011;26174;42.908;23.800;2023-10-13T08:23:49;18.20;;;7.88;;
40471;SDS011;26174;42.908;23.800;2023-10-13T08:26:22;30.73;;;8.45;;
40471;SDS011;26174;42.908;23.800;2023-10-13T08:29:06;18.13;;;6.80;;
40471;SDS011;26174;42.908;23.800;2023-10-13T08:31:51;10.90;;;6.35;;
40471;SDS011;26174;42.908;23.800;2023-10-13T08:34:32;16.75;;;7.82;;
40471;SDS011;26174;42.908;23.800;2023-10-13T08:37:08;12.18;;;6.85;;
40471;SDS011;26174;42.908;23.800;2023-10-13T08:39:50;9.75;;;6.82;;
40471;SDS011;26174;42.908;23.800;2023-10-13T08:47:51;16.15;;;6.13;;
40471;SDS011;26174;42.908;23.800;2023-10-13T08:53:34;12.48;;;6.03;;
40471;SDS011;26174;42.908;23.800;2023-10-13T08:56:09;9.10;;;4.60;;
40471;SDS011;26174;42.908;23.800;2023-10-13T08:58:53;8.15;;;4.53;;
40471;SDS011;26174;42.908;23.800;2023-10-13T09:04:03;9.73;;;4.40;;
40471;SDS011;26174;42.908;23.800;2023-10-13T09:06:46;8.45;;;4.70;;
40471;SDS011;26174;42.908;23.800;2023-10-13T09:09:29;8.70;;;4.53;;
40471;SDS011;26174;42.908;23.800;2023-10-13T09:15:04;10.65;;;4.85;;
40471;SDS011;26174;42.908;23.800;2023-10-13T09:17:40;11.90;;;4.93;;
40471;SDS011;26174;42.908;23.800;2023-10-13T09:20:16;12.15;;;6.38;;
40471;SDS011;26174;42.908;23.800;2023-10-13T09:22:52;8.82;;;4.82;;
40471;SDS011;26174;42.908;23.800;2023-10-13T09:25:39;12.38;;;4.85;;
40471;SDS011;26174;42.908;23.800;2023-10-13T09:28:19;11.25;;;5.00;;
40471;SDS011;26174;42.908;23.800;2023-10-13T09:30:51;18.90;;;5.97;;
40471;SDS011;26174;42.908;23.800;2023-10-13T09:33:24;21.67;;;9.65;;
40471;SDS011;26174;42.908;23.800;2023-10-13T09:36:10;13.32;;;6.13;;
40471;SDS011;26174;42.908;23.800;2023-10-13T09:38:38;10.18;;;5.00;;
40471;SDS011;26174;42.908;23.800;2023-10-13T09:41:06;11.63;;;6.15;;
40471;SDS011;26174;42.908;23.800;2023-10-13T09:43:47;16.77;;;6.43;;
40471;SDS011;26174;42.908;23.800;2023-10-13T09:46:18;29.25;;;11.15;;
40471;SDS011;26174;42.908;23.800;2023-10-13T09:48:48;14.77;;;6.30;;
40471;SDS011;26174;42.908;23.800;2023-10-13T09:51:29;11.57;;;5.47;;
40471;SDS011;26174;42.908;23.800;2023-10-13T09:54:06;7.22;;;5.10;;
40471;SDS011;26174;42.908;23.800;2023-10-13T09:56:51;12.63;;;5.43;;
40471;SDS011;26174;42.908;23.800;2023-10-13T09:59:22;10.65;;;4.72;;
40471;SDS011;26174;42.908;23.800;2023-10-13T10:01:59;8.75;;;4.55;;
40471;SDS011;26174;42.908;23.800;2023-10-13T10:04:34;8.18;;;3.92;;
40471;SDS011;26174;42.908;23.800;2023-10-13T10:07:26;8.77;;;4.25;;
40471;SDS011;26174;42.908;23.800;2023-10-13T10:10:01;7.90;;;4.20;;
40471;SDS011;26174;42.908;23.800;2023-10-13T10:18:00;7.38;;;4.10;;
40471;SDS011;26174;42.908;23.800;2023-10-13T10:20:33;6.07;;;3.78;;
40471;SDS011;26174;42.908;23.800;2023-10-13T10:23:23;8.80;;;3.83;;
40471;SDS011;26174;42.908;23.800;2023-10-13T10:25:54;6.18;;;3.42;;
40471;SDS011;26174;42.908;23.800;2023-10-13T10:28:40;10.95;;;4.45;;
40471;SDS011;26174;42.908;23.800;2023-10-13T10:31:07;6.57;;;3.55;;
40471;SDS011;26174;42.908;23.800;2023-10-13T10:33:44;10.52;;;3.60;;
40471;SDS011;26174;42.908;23.800;2023-10-13T10:36:15;6.68;;;3.75;;
40471;SDS011;26174;42.908;23.800;2023-10-13T10:38:52;8.65;;;3.33;;
40471;SDS011;26174;42.908;23.800;2023-10-13T10:41:30;6.55;;;3.30;;
40471;SDS011;26174;42.908;23.800;2023-10-13T10:44:10;5.38;;;3.08;;
40471;SDS011;26174;42.908;23.800;2023-10-13T10:46:48;12.45;;;3.35;;
40471;SDS011;26174;42.908;23.800;2023-10-13T10:49:21;16.25;;;5.05;;
40471;SDS011;26174;42.908;23.800;2023-10-13T10:51:59;21.02;;;9.63;;
40471;SDS011;26174;42.908;23.800;2023-10-13T10:54:29;8.80;;;5.53;;
40471;SDS011;26174;42.908;23.800;2023-10-13T10:56:57;7.53;;;3.13;;
40471;SDS011;26174;42.908;23.800;2023-10-13T10:59:35;8.77;;;4.63;;
40471;SDS011;26174;42.908;23.800;2023-10-13T11:02:04;12.18;;;3.42;;
40471;SDS011;26174;42.908;23.800;2023-10-13T11:04:32;7.65;;;3.28;;
40471;SDS011;26174;42.908;23.800;2023-10-13T11:07:05;13.85;;;3.95;;
40471;SDS011;26174;42.908;23.800;2023-10-13T11:09:33;15.90;;;5.43;;
40471;SDS011;26174;42.908;23.800;2023-10-13T11:14:59;10.90;;;3.70;;
40471;SDS011;26174;42.908;23.800;2023-10-13T11:17:58;10.50;;;3.97;;
40471;SDS011;26174;42.908;23.800;2023-10-13T11:20:24;13.10;;;3.95;;
40471;SDS011;26174;42.908;23.800;2023-10-13T11:23:10;4.50;;;2.70;;
40471;SDS011;26174;42.908;23.800;2023-10-13T11:25:38;4.55;;;2.80;;
40471;SDS011;26174;42.908;23.800;2023-10-13T11:28:14;9.25;;;3.45;;
40471;SDS011;26174;42.908;23.800;2023-10-13T11:30:56;13.68;;;2.75;;
40471;SDS011;26174;42.908;23.800;2023-10-13T11:33:24;5.20;;;3.57;;
40471;SDS011;26174;42.908;23.800;2023-10-13T11:35:52;11.77;;;3.50;;
40471;SDS011;26174;42.908;23.800;2023-10-13T11:38:21;15.40;;;3.25;;
40471;SDS011;26174;42.908;23.800;2023-10-13T11:43:29;6.10;;;2.95;;
40471;SDS011;26174;42.908;23.800;2023-10-13T11:46:01;11.18;;;3.22;;
40471;SDS011;26174;42.908;23.800;2023-10-13T11:48:36;5.70;;;2.78;;
40471;SDS011;26174;42.908;23.800;2023-10-13T11:51:20;8.20;;;2.95;;
40471;SDS011;26174;42.908;23.800;2023-10-13T11:53:57;8.43;;;3.25;;
40471;SDS011;26174;42.908;23.800;2023-10-13T11:56:23;14.60;;;3.13;;
40471;SDS011;26174;42.908;23.800;2023-10-13T11:58:50;12.13;;;3.33;;
40471;SDS011;26174;42.908;23.800;2023-10-13T12:01:16;7.03;;;2.90;;
40471;SDS011;26174;42.908;23.800;2023-10-13T12:03:46;7.18;;;3.80;;
40471;SDS011;26174;42.908;23.800;2023-10-13T12:06:34;6.35;;;2.60;;
40471;SDS011;26174;42.908;23.800;2023-10-13T12:09:00;4.03;;;2.38;;
40471;SDS011;26174;42.908;23.800;2023-10-13T12:11:48;7.28;;;2.30;;
40471;SDS011;26174;42.908;23.800;2023-10-13T12:14:19;6.63;;;2.25;;
40471;SDS011;26174;42.908;23.800;2023-10-13T12:16:50;4.13;;;2.00;;
40471;SDS011;26174;42.908;23.800;2023-10-13T12:19:16;4.32;;;2.38;;
40471;SDS011;26174;42.908;23.800;2023-10-13T12:21:45;27.23;;;4.45;;
40471;SDS011;26174;42.908;23.800;2023-10-13T12:24:13;3.37;;;1.77;;
40471;SDS011;26174;42.908;23.800;2023-10-13T12:26:56;10.50;;;2.35;;
40471;SDS011;26174;42.908;23.800;2023-10-13T12:29:25;7.28;;;1.80;;
40471;SDS011;26174;42.908;23.800;2023-10-13T12:31:56;7.60;;;2.40;;
40471;SDS011;26174;42.908;23.800;2023-10-13T12:34:37;4.50;;;2.30;;
40471;SDS011;26174;42.908;23.800;2023-10-13T12:37:22;10.95;;;2.75;;
40471;SDS011;26174;42.908;23.800;2023-10-13T12:40:18;10.07;;;2.55;;
40471;SDS011;26174;42.908;23.800;2023-10-13T12:43:02;3.80;;;2.03;;
40471;SDS011;26174;42.908;23.800;2023-10-13T12:45:48;9.10;;;2.47;;
40471;SDS011;26174;42.908;23.800;2023-10-13T12:48:33;5.63;;;2.13;;
40471;SDS011;26174;42.908;23.800;2023-10-13T12:51:19;9.18;;;4.70;;
40471;SDS011;26174;42.908;23.800;2023-10-13T12:53:48;7.82;;;2.60;;
40471;SDS011;26174;42.908;23.800;2023-10-13T12:56:15;9.25;;;2.20;;
40471;SDS011;26174;42.908;23.800;2023-10-13T12:58:41;7.80;;;2.67;;
40471;SDS011;26174;42.908;23.800;2023-10-13T13:01:07;6.90;;;2.85;;
40471;SDS011;26174;42.908;23.800;2023-10-13T13:03:33;6.18;;;2.45;;
40471;SDS011;26174;42.908;23.800;2023-10-13T13:05:59;7.65;;;2.88;;
40471;SDS011;26174;42.908;23.800;2023-10-13T13:08:32;8.88;;;3.55;;
40471;SDS011;26174;42.908;23.800;2023-10-13T13:11:00;7.20;;;2.40;;
40471;SDS011;26174;42.908;23.800;2023-10-13T13:13:26;5.65;;;2.60;;
40471;SDS011;26174;42.908;23.800;2023-10-13T13:15:52;7.05;;;2.90;;
40471;SDS011;26174;42.908;23.800;2023-10-13T13:18:18;8.48;;;2.75;;
40471;SDS011;26174;42.908;23.800;2023-10-13T13:20:44;8.40;;;2.97;;
40471;SDS011;26174;42.908;23.800;2023-10-13T13:23:20;10.45;;;3.28;;
40471;SDS011;26174;42.908;23.800;2023-10-13T13:25:52;10.30;;;2.75;;
40471;SDS011;26174;42.908;23.800;2023-10-13T13:28:18;11.10;;;2.60;;
40471;SDS011;26174;42.908;23.800;2023-10-13T13:30:44;5.60;;;2.80;;
40471;SDS011;26174;42.908;23.800;2023-10-13T13:33:11;10.93;;;3.42;;
40471;SDS011;26174;42.908;23.800;2023-10-13T13:35:39;9.77;;;3.65;;
40471;SDS011;26174;42.908;23.800;2023-10-13T13:38:08;5.07;;;2.37;;
40471;SDS011;26174;42.908;23.800;2023-10-13T13:40:47;8.50;;;2.40;;
40471;SDS011;26174;42.908;23.800;2023-10-13T13:43:19;8.30;;;2.63;;
40471;SDS011;26174;42.908;23.800;2023-10-13T13:46:06;11.18;;;2.92;;
40471;SDS011;26174;42.908;23.800;2023-10-13T13:48:38;10.90;;;3.40;;
40471;SDS011;26174;42.908;23.800;2023-10-13T13:51:05;10.10;;;3.00;;
40471;SDS011;26174;42.908;23.800;2023-10-13T13:53:40;7.90;;;2.70;;
40471;SDS011;26174;42.908;23.800;2023-10-13T13:56:10;7.37;;;3.23;;
40471;SDS011;26174;42.908;23.800;2023-10-13T13:58:36;4.90;;;2.85;;
40471;SDS011;26174;42.908;23.800;2023-10-13T14:01:03;12.93;;;2.88;;
40471;SDS011;26174;42.908;23.800;2023-10-13T14:03:40;7.38;;;3.08;;
40471;SDS011;26174;42.908;23.800;2023-10-13T14:06:10;7.32;;;2.67;;
40471;SDS011;26174;42.908;23.800;2023-10-13T14:08:49;10.05;;;2.90;;
40471;SDS011;26174;42.908;23.800;2023-10-13T14:11:29;13.23;;;3.30;;
40471;SDS011;26174;42.908;23.800;2023-10-13T14:14:05;9.77;;;3.10;;
40471;SDS011;26174;42.908;23.800;2023-10-13T14:16:58;12.57;;;3.33;;
40471;SDS011;26174;42.908;23.800;2023-10-13T14:19:33;9.60;;;3.30;;
40471;SDS011;26174;42.908;23.800;2023-10-13T14:22:00;9.02;;;2.80;;
40471;SDS011;26174;42.908;23.800;2023-10-13T14:24:31;12.23;;;2.97;;
40471;SDS011;26174;42.908;23.800;2023-10-13T14:27:00;9.13;;;3.75;;
40471;SDS011;26174;42.908;23.800;2023-10-13T14:29:36;21.45;;;3.65;;
40471;SDS011;26174;42.908;23.800;2023-10-13T14:32:08;10.68;;;4.13;;
40471;SDS011;26174;42.908;23.800;2023-10-13T14:34:41;11.82;;;3.92;;
40471;SDS011;26174;42.908;23.800;2023-10-13T14:37:08;33.60;;;17.67;;
40471;SDS011;26174;42.908;23.800;2023-10-13T14:39:38;13.93;;;6.30;;
40471;SDS011;26174;42.908;23.800;2023-10-13T14:42:04;9.32;;;3.83;;
40471;SDS011;26174;42.908;23.800;2023-10-13T14:44:35;13.50;;;5.63;;
40471;SDS011;26174;42.908;23.800;2023-10-13T14:47:02;22.23;;;4.47;;
40471;SDS011;26174;42.908;23.800;2023-10-13T14:49:30;13.25;;;3.90;;
40471;SDS011;26174;42.908;23.800;2023-10-13T14:51:56;15.65;;;4.00;;
40471;SDS011;26174;42.908;23.800;2023-10-13T14:54:24;11.40;;;3.42;;
40471;SDS011;26174;42.908;23.800;2023-10-13T14:57:02;13.43;;;4.15;;
40471;SDS011;26174;42.908;23.800;2023-10-13T14:59:28;12.88;;;3.60;;
40471;SDS011;26174;42.908;23.800;2023-10-13T15:01:58;34.95;;;14.23;;
40471;SDS011;26174;42.908;23.800;2023-10-13T15:04:27;15.57;;;4.10;;
40471;SDS011;26174;42.908;23.800;2023-10-13T15:06:54;12.07;;;4.22;;
40471;SDS011;26174;42.908;23.800;2023-10-13T15:09:20;12.98;;;4.47;;
40471;SDS011;26174;42.908;23.800;2023-10-13T15:11:48;16.17;;;4.10;;
40471;SDS011;26174;42.908;23.800;2023-10-13T15:14:18;17.67;;;4.13;;
40471;SDS011;26174;42.908;23.800;2023-10-13T15:16:45;26.77;;;5.35;;
40471;SDS011;26174;42.908;23.800;2023-10-13T15:19:11;25.27;;;5.50;;
40471;SDS011;26174;42.908;23.800;2023-10-13T15:21:37;28.55;;;5.07;;
40471;SDS011;26174;42.908;23.800;2023-10-13T15:24:05;28.25;;;5.40;;
40471;SDS011;26174;42.908;23.800;2023-10-13T15:26:46;11.13;;;3.43;;
40471;SDS011;26174;42.908;23.800;2023-10-13T15:29:18;16.42;;;3.63;;
40471;SDS011;26174;42.908;23.800;2023-10-13T15:31:50;10.20;;;3.28;;